Terminal Aerodrome Forecast
Issued by NWS

Home | Current Version | Previous Version | Text Only | Print | Product List | Glossary On
Versions: 1 2 3 4 5 6 7 8 9 10 11 12 13 14 15 16 17 18 19 20 21 22 23
527
FTUS43 KDTX 230944 AAB
TAFDET
TAF AMD
KDET 230944Z 2310/2406 32004KT 6SM BR SCT008 OVC015
      TEMPO 2310/2313 BKN008
     FM231400 30004KT P6SM OVC018
     FM231800 23005KT P6SM SCT028 BKN040 PROB30 2319/2322 4SM -TSRA
      SCT028CB BKN040
     FM232200 27010KT P6SM BKN035
     FM240300 29006KT P6SM SCT035 BKN080=

USA.gov is the U.S. government's official web portal to all federal, state and local government web resources and services.